Pagrindinis puslapis
METAR-TAF:

METAR-TAF

Oro uostai :

Kirkenesas, Norvegija

platuma: 69-44N, ilguma: 029-54E, Aukštis: 9 m

Dabartinis oras

Ataskaita buvo paskelbta 27 minutes, ne 03:20 UTC
Vėjas 6 kt iš Rytų/Pietryčių
Temperatūra -11°C
Drėgmė 72%
Slėgis 1023 hPa
Matomumas 10 km arba daugiau
nėra debesų žemiau 1500 m ir nėra kamuolinių lietaus debesų

METAR: ENKR 190320Z 12006KT CAVOK M11/M15 Q1023 RMK WIND 731FT 11010KT

Laikas: 05:47 (03:47 UTC)

Prognozė

Ataskaita buvo paskelbta 1 valandą ir 47 minutes, ne 02:00 UTC
Prognozė galioja nuo 19 metu 03 UTC su 19 metu 12 UTC
Vėjas 9 kt iš Pietryčių
Matomumas 10 km arba daugiau
nėra debesų žemiau 1500 m ir nėra kamuolinių lietaus debesų

TAF: ENKR 190200Z 1903/1912 13009KT CAVOK

Orai ataskaitas ir orų prognozės (METAR, TAF).

turimą stotys yra geltonos ir raudonos taškus žemėlapyje.

Perkelti pele per norėdami pamatyti stoties vardą.

Tada spustelėkite, norėdami matyti oro stebėjimo ir prognozės.

Norėdami pakeisti žemėlapį: spustelėkite ant žalios mygtukų su juodo kryžiaus žemyn,; žalią mygtuką su brūkšneliu, jei norite nutolinti; arba žalių rodyklių gretimoms žemėlapius.


METAR-TAF: